createdAt,value
2022-10-23T00:01:45.440Z,9.93
2022-10-23T00:04:16.771Z,12.93
2022-10-23T00:06:46.783Z,10.27
2022-10-23T00:09:21.080Z,8.37
2022-10-23T00:11:50.769Z,11.03
2022-10-23T00:14:21.305Z,13.57
2022-10-23T00:16:49.480Z,12.70
2022-10-23T00:19:18.110Z,9.20
2022-10-23T00:21:47.697Z,12.40
2022-10-23T00:24:15.949Z,7.13
2022-10-23T00:26:44.195Z,10.90
2022-10-23T00:29:12.913Z,10.53
2022-10-23T00:31:41.228Z,9.90
2022-10-23T00:34:12.382Z,13.40
2022-10-23T00:36:40.854Z,14.10
2022-10-23T00:39:10.332Z,11.40
2022-10-23T00:41:38.685Z,11.50
2022-10-23T00:44:12.282Z,10.07
2022-10-23T00:46:40.799Z,7.47
2022-10-23T00:51:42.137Z,10.50
2022-10-23T00:54:23.326Z,9.73
2022-10-23T00:56:53.722Z,11.53
2022-10-23T00:59:22.039Z,9.57
2022-10-23T01:01:50.124Z,9.93
2022-10-23T01:04:18.607Z,10.20
2022-10-23T01:06:55.208Z,7.47
2022-10-23T01:09:32.712Z,8.40
2022-10-23T01:12:08.476Z,9.80
2022-10-23T01:14:43.485Z,9.57
2022-10-23T01:17:16.579Z,6.63
2022-10-23T01:19:52.179Z,7.23
2022-10-23T01:22:34.232Z,8.17
2022-10-23T01:25:12.554Z,8.67
2022-10-23T01:27:46.584Z,7.47
2022-10-23T01:30:18.043Z,9.43
2022-10-23T01:32:52.714Z,9.63
2022-10-23T01:35:23.782Z,8.70
2022-10-23T01:37:56.020Z,8.70
2022-10-23T01:40:34.136Z,7.63
2022-10-23T01:43:15.352Z,6.50
2022-10-23T01:45:46.856Z,7.27
2022-10-23T01:48:21.515Z,6.83
2022-10-23T01:50:51.290Z,6.20
2022-10-23T01:53:20.961Z,6.63
2022-10-23T01:55:51.012Z,8.20
2022-10-23T01:58:22.163Z,5.87
2022-10-23T02:00:52.758Z,6.50
2022-10-23T02:03:21.961Z,5.53
2022-10-23T02:05:52.651Z,10.50
2022-10-23T02:08:21.220Z,7.30
2022-10-23T02:10:52.979Z,6.20
2022-10-23T02:13:28.970Z,5.50
2022-10-23T02:16:04.692Z,6.20
2022-10-23T02:18:45.995Z,14.43
2022-10-23T02:21:18.727Z,8.50
2022-10-23T02:23:55.248Z,5.20
2022-10-23T02:26:28.768Z,5.97
2022-10-23T02:29:02.986Z,9.43
2022-10-23T02:31:31.424Z,6.70
2022-10-23T02:33:59.453Z,7.07
2022-10-23T02:36:27.655Z,8.30
2022-10-23T02:38:55.752Z,6.90
2022-10-23T02:41:40.493Z,9.37
2022-10-23T02:44:24.610Z,8.97
2022-10-23T02:47:01.064Z,10.00
2022-10-23T02:49:36.760Z,8.00
2022-10-23T02:52:13.724Z,9.87
2022-10-23T02:54:55.729Z,4.90
2022-10-23T02:57:31.034Z,6.40
2022-10-23T03:00:10.956Z,6.93
2022-10-23T03:02:41.958Z,8.67
2022-10-23T03:05:15.823Z,8.73
2022-10-23T03:07:44.900Z,6.73
2022-10-23T03:10:13.645Z,19.60
2022-10-23T03:12:42.581Z,29.17
2022-10-23T03:15:13.113Z,10.07
2022-10-23T03:17:44.157Z,16.53
2022-10-23T03:20:13.021Z,12.70
2022-10-23T03:22:41.966Z,11.80
2022-10-23T03:25:11.513Z,9.93
2022-10-23T03:27:39.583Z,8.23
2022-10-23T03:30:09.052Z,9.63
2022-10-23T03:32:38.607Z,6.70
2022-10-23T03:35:07.417Z,7.47
2022-10-23T03:37:35.464Z,10.30
2022-10-23T03:40:03.667Z,10.93
2022-10-23T03:42:31.735Z,10.13
2022-10-23T03:44:59.748Z,7.77
2022-10-23T03:47:27.732Z,6.70
2022-10-23T03:49:57.072Z,7.47
2022-10-23T03:54:58.023Z,7.80
2022-10-23T03:57:26.567Z,13.93
2022-10-23T03:59:54.637Z,6.50
2022-10-23T04:02:22.737Z,57.03
2022-10-23T04:04:50.922Z,46.23
2022-10-23T04:07:23.014Z,30.00
2022-10-23T04:09:51.117Z,9.70
2022-10-23T04:12:19.432Z,5.90
2022-10-23T04:14:47.538Z,5.23
2022-10-23T04:17:15.822Z,9.10
2022-10-23T04:19:43.886Z,56.70
2022-10-23T04:22:11.940Z,57.97
2022-10-23T04:24:45.302Z,49.80
2022-10-23T04:27:13.863Z,17.53
2022-10-23T04:29:41.958Z,17.00
2022-10-23T04:32:09.933Z,19.90
2022-10-23T04:34:38.111Z,6.60
2022-10-23T04:37:09.852Z,10.33
2022-10-23T04:39:37.892Z,8.20
2022-10-23T04:42:07.500Z,6.27
2022-10-23T04:44:35.684Z,11.03
2022-10-23T04:47:03.942Z,8.90
2022-10-23T04:49:32.000Z,10.17
2022-10-23T04:51:59.991Z,8.60
2022-10-23T04:54:28.005Z,34.70
2022-10-23T04:56:56.028Z,53.57
2022-10-23T04:59:25.361Z,42.20
2022-10-23T05:01:53.799Z,46.73
2022-10-23T05:04:21.867Z,9.77
2022-10-23T05:06:49.893Z,12.80
2022-10-23T05:09:18.068Z,15.40
2022-10-23T05:11:46.039Z,9.73
2022-10-23T05:14:15.575Z,55.77
2022-10-23T05:16:53.831Z,70.30
2022-10-23T05:19:27.769Z,55.80
2022-10-23T05:21:57.315Z,8.93
2022-10-23T05:24:26.600Z,51.80
2022-10-23T05:26:54.784Z,23.30
2022-10-23T05:29:24.399Z,19.53
2022-10-23T05:31:56.956Z,17.00
2022-10-23T05:34:27.358Z,8.80
2022-10-23T05:36:56.060Z,11.83
2022-10-23T05:39:24.315Z,46.60
2022-10-23T05:41:52.617Z,11.83
2022-10-23T05:44:21.168Z,116.53
2022-10-23T05:47:19.352Z,80.13
2022-10-23T05:49:47.450Z,67.53
2022-10-23T05:52:22.381Z,6.10
2022-10-23T05:54:52.598Z,18.67
2022-10-23T05:57:20.812Z,23.30
2022-10-23T05:59:49.117Z,5.73
2022-10-23T06:02:18.730Z,61.17
2022-10-23T06:04:46.885Z,73.00
2022-10-23T06:07:24.661Z,39.53
2022-10-23T06:09:54.308Z,25.67
2022-10-23T06:12:22.497Z,10.20
2022-10-23T06:14:51.863Z,11.13
2022-10-23T06:17:21.605Z,8.20
2022-10-23T06:19:49.660Z,13.43
2022-10-23T06:22:17.709Z,18.73
2022-10-23T06:24:45.759Z,39.07
2022-10-23T06:27:13.956Z,30.67
2022-10-23T06:29:44.465Z,18.57
2022-10-23T06:32:14.962Z,9.37
2022-10-23T06:34:47.365Z,7.03
2022-10-23T06:37:15.557Z,6.50
2022-10-23T06:39:43.626Z,75.97
2022-10-23T06:42:12.123Z,7.20
2022-10-23T06:44:40.314Z,9.93
2022-10-23T06:47:10.489Z,17.40
2022-10-23T06:49:40.962Z,23.37
2022-10-23T06:52:18.426Z,6.30
2022-10-23T06:54:57.492Z,13.37
2022-10-23T06:57:25.649Z,15.80
2022-10-23T06:59:56.818Z,83.93
2022-10-23T07:02:24.950Z,42.63
2022-10-23T07:04:52.981Z,23.97
2022-10-23T07:07:25.832Z,7.67
2022-10-23T07:09:54.041Z,10.70
2022-10-23T07:12:22.411Z,4.73
2022-10-23T07:14:57.961Z,22.40
2022-10-23T07:17:27.355Z,11.43
2022-10-23T07:19:55.357Z,6.87
2022-10-23T07:22:25.140Z,20.80
2022-10-23T07:24:53.192Z,14.70
2022-10-23T07:27:21.632Z,6.57
2022-10-23T07:29:51.847Z,27.47
2022-10-23T07:32:20.684Z,9.40
2022-10-23T07:34:49.501Z,24.70
2022-10-23T07:37:19.848Z,14.13
2022-10-23T07:39:49.548Z,36.03
2022-10-23T07:42:17.787Z,53.40
2022-10-23T07:44:45.868Z,52.67
2022-10-23T07:47:14.483Z,74.07
2022-10-23T07:49:42.873Z,29.40
2022-10-23T07:52:12.267Z,22.27
2022-10-23T07:54:42.736Z,16.90
2022-10-23T07:57:13.044Z,106.33
2022-10-23T07:59:41.308Z,65.53
2022-10-23T08:02:12.719Z,15.23
2022-10-23T08:04:40.775Z,9.70
2022-10-23T08:07:08.919Z,8.10
2022-10-23T08:09:38.035Z,7.00
2022-10-23T08:12:06.585Z,9.77
2022-10-23T08:14:36.069Z,10.23
2022-10-23T08:17:09.580Z,10.83
2022-10-23T08:19:37.967Z,7.70
2022-10-23T08:22:09.272Z,6.43
2022-10-23T08:24:37.284Z,5.90
2022-10-23T08:27:05.395Z,5.60
2022-10-23T08:29:35.062Z,6.50
2022-10-23T08:32:03.121Z,7.83
2022-10-23T08:34:31.289Z,5.10
2022-10-23T08:36:59.752Z,5.33
2022-10-23T08:39:27.880Z,5.77
2022-10-23T08:41:56.009Z,4.93
2022-10-23T08:44:29.240Z,4.60
2022-10-23T08:47:08.362Z,5.03
2022-10-23T08:49:44.245Z,6.53
2022-10-23T08:52:21.560Z,6.83
2022-10-23T08:55:06.055Z,5.80
2022-10-23T08:57:41.442Z,4.30
2022-10-23T09:00:16.604Z,3.43
2022-10-23T09:02:47.767Z,5.90
2022-10-23T09:05:20.556Z,5.50
2022-10-23T09:08:13.863Z,4.07
2022-10-23T09:11:07.406Z,7.30
2022-10-23T09:14:00.007Z,9.13
2022-10-23T09:16:44.316Z,6.23
2022-10-23T09:19:18.274Z,7.70
2022-10-23T09:21:50.061Z,4.80
2022-10-23T09:24:20.333Z,4.67
2022-10-23T09:26:50.678Z,5.93
2022-10-23T09:29:25.346Z,7.13
2022-10-23T09:31:58.552Z,5.27
2022-10-23T09:34:29.732Z,6.07
2022-10-23T09:37:00.845Z,9.47
2022-10-23T09:39:31.368Z,5.57
2022-10-23T09:42:02.468Z,8.03
2022-10-23T09:44:33.261Z,10.47
2022-10-23T09:47:11.153Z,8.40
2022-10-23T09:49:47.307Z,9.57
2022-10-23T09:52:25.745Z,6.03
2022-10-23T09:54:57.125Z,6.67
2022-10-23T09:57:30.091Z,4.70
2022-10-23T10:00:01.599Z,5.40
2022-10-23T10:02:32.404Z,6.77
2022-10-23T10:05:13.533Z,8.50
2022-10-23T10:07:43.094Z,6.10
2022-10-23T10:10:16.750Z,4.60
2022-10-23T10:12:51.498Z,4.10
2022-10-23T10:15:27.252Z,8.20
2022-10-23T10:18:09.275Z,7.00
2022-10-23T10:20:56.427Z,11.20
2022-10-23T10:23:33.504Z,6.73
2022-10-23T10:26:09.067Z,6.40
2022-10-23T10:28:54.800Z,8.17
2022-10-23T10:31:34.313Z,4.53
2022-10-23T10:34:11.459Z,6.10
2022-10-23T10:36:50.637Z,8.47
2022-10-23T10:39:28.892Z,6.33
2022-10-23T10:42:23.725Z,6.30
2022-10-23T10:45:01.636Z,9.53
2022-10-23T10:47:38.876Z,6.07
2022-10-23T10:50:18.219Z,4.27
2022-10-23T10:52:56.724Z,6.30
2022-10-23T10:55:31.614Z,9.50
2022-10-23T10:58:05.936Z,6.50
2022-10-23T11:00:35.763Z,8.60
2022-10-23T11:03:12.478Z,5.93
2022-10-23T11:05:45.415Z,8.67
2022-10-23T11:08:20.593Z,6.17
2022-10-23T11:10:53.020Z,9.53
2022-10-23T11:13:28.095Z,5.37
2022-10-23T11:16:00.924Z,7.07
2022-10-23T11:18:32.059Z,4.70
2022-10-23T11:21:08.732Z,5.53
2022-10-23T11:24:03.119Z,4.77
2022-10-23T11:26:42.776Z,3.80
2022-10-23T11:29:45.606Z,5.30
2022-10-23T11:32:28.103Z,5.60
2022-10-23T11:35:15.469Z,4.17
2022-10-23T11:37:44.274Z,4.37
2022-10-23T11:40:24.818Z,4.20
2022-10-23T11:42:53.331Z,4.57
2022-10-23T11:45:33.795Z,5.90
2022-10-23T11:48:04.221Z,10.83
2022-10-23T11:50:34.210Z,4.37
2022-10-23T11:53:14.300Z,5.27
2022-10-23T11:55:58.973Z,8.93
2022-10-23T11:58:31.865Z,10.83
2022-10-23T12:01:05.254Z,7.50
2022-10-23T12:03:48.612Z,6.33
2022-10-23T12:06:23.618Z,6.43
2022-10-23T12:08:55.005Z,7.33
2022-10-23T12:11:49.475Z,4.00
2022-10-23T12:14:29.215Z,5.90
2022-10-23T12:16:57.603Z,4.40
2022-10-23T12:19:28.814Z,5.30
2022-10-23T12:22:00.409Z,6.53
2022-10-23T12:24:42.416Z,5.40
2022-10-23T12:27:23.276Z,4.97
2022-10-23T12:30:15.456Z,5.23
2022-10-23T12:33:04.279Z,11.20
2022-10-23T12:35:52.931Z,8.77
2022-10-23T12:38:23.943Z,5.87
2022-10-23T12:40:53.775Z,6.13
2022-10-23T12:43:27.316Z,8.20
2022-10-23T12:45:57.287Z,6.90
2022-10-23T12:48:26.247Z,13.50
2022-10-23T12:50:56.597Z,7.47
2022-10-23T12:53:26.082Z,6.67
2022-10-23T12:58:35.451Z,12.07
2022-10-23T13:01:05.542Z,8.67
2022-10-23T13:03:35.150Z,9.17
2022-10-23T13:06:04.057Z,7.93
2022-10-23T13:08:43.818Z,6.73
2022-10-23T13:11:16.637Z,6.73
2022-10-23T13:13:47.060Z,5.93
2022-10-23T13:16:16.163Z,5.10
2022-10-23T13:18:44.533Z,9.03
2022-10-23T13:21:19.022Z,5.47
2022-10-23T13:23:47.493Z,6.17
2022-10-23T13:26:33.431Z,5.37
2022-10-23T13:29:08.790Z,6.03
2022-10-23T13:31:37.864Z,6.87
2022-10-23T13:34:19.970Z,6.63
2022-10-23T13:36:55.136Z,7.97
2022-10-23T13:39:28.535Z,8.50
2022-10-23T13:41:57.731Z,5.83
2022-10-23T13:44:27.177Z,5.90
2022-10-23T13:46:55.291Z,7.20
2022-10-23T13:49:23.289Z,10.17
2022-10-23T13:51:53.931Z,11.03
2022-10-23T13:54:23.598Z,13.00
2022-10-23T13:56:52.568Z,16.27
2022-10-23T13:59:20.790Z,11.90
2022-10-23T14:01:51.773Z,11.63
2022-10-23T14:04:20.627Z,7.97
2022-10-23T14:06:48.995Z,10.50
2022-10-23T14:09:19.378Z,10.10
2022-10-23T14:11:47.751Z,11.30
2022-10-23T14:14:16.502Z,12.73
2022-10-23T14:16:45.640Z,7.33
2022-10-23T14:19:15.006Z,12.70
2022-10-23T14:21:43.004Z,13.90
2022-10-23T14:24:10.941Z,12.53
2022-10-23T14:26:39.135Z,15.53
2022-10-23T14:29:09.908Z,12.17
2022-10-23T14:31:39.535Z,10.33
2022-10-23T14:34:07.481Z,9.00
2022-10-23T14:36:49.363Z,10.90
2022-10-23T14:39:19.097Z,10.83
2022-10-23T14:41:47.075Z,9.33
2022-10-23T14:44:15.309Z,12.30
2022-10-23T14:46:43.447Z,11.07
2022-10-23T14:49:11.512Z,10.47
2022-10-23T14:51:40.892Z,9.03
2022-10-23T14:54:09.247Z,10.57
2022-10-23T14:56:39.946Z,12.70
2022-10-23T14:59:10.215Z,10.90
2022-10-23T15:01:45.063Z,11.60
2022-10-23T15:04:15.412Z,11.10
2022-10-23T15:06:46.667Z,13.07
2022-10-23T15:09:15.123Z,13.00
2022-10-23T15:11:43.653Z,15.93
2022-10-23T15:14:11.657Z,17.80
2022-10-23T15:16:41.779Z,18.63
2022-10-23T15:19:15.168Z,20.43
2022-10-23T15:21:48.631Z,18.70
2022-10-23T15:24:17.379Z,15.37
2022-10-23T15:26:47.224Z,20.67
2022-10-23T15:29:16.079Z,15.83
2022-10-23T15:31:49.846Z,18.90
2022-10-23T15:34:20.202Z,18.60
2022-10-23T15:36:50.242Z,24.73
2022-10-23T15:39:20.766Z,42.53
2022-10-23T15:41:51.056Z,29.60
2022-10-23T15:44:20.592Z,55.90
2022-10-23T15:46:49.551Z,34.97
2022-10-23T15:49:17.947Z,27.53
2022-10-23T15:51:46.924Z,36.50
2022-10-23T15:54:22.230Z,29.80
2022-10-23T15:56:53.087Z,34.80
2022-10-23T15:59:24.002Z,40.33
2022-10-23T16:01:52.686Z,50.17
2022-10-23T16:04:20.844Z,37.47
2022-10-23T16:06:49.495Z,33.43
2022-10-23T16:09:18.889Z,44.20
2022-10-23T16:11:47.004Z,29.30
2022-10-23T16:14:17.710Z,30.07
2022-10-23T16:16:46.000Z,30.87
2022-10-23T16:19:14.183Z,34.13
2022-10-23T16:21:42.890Z,32.57
2022-10-23T16:24:11.688Z,31.93
2022-10-23T16:26:41.188Z,31.40
2022-10-23T16:29:10.589Z,33.03
2022-10-23T16:31:38.847Z,31.73
2022-10-23T16:34:07.330Z,32.47
2022-10-23T16:36:38.896Z,39.03
2022-10-23T16:39:07.654Z,34.40
2022-10-23T16:41:35.829Z,38.63
2022-10-23T16:44:05.287Z,35.17
2022-10-23T16:46:34.097Z,31.13
2022-10-23T16:49:03.913Z,34.40
2022-10-23T16:51:32.392Z,34.40
2022-10-23T16:54:00.466Z,31.00
2022-10-23T16:56:30.577Z,33.60
2022-10-23T17:01:34.502Z,43.50
2022-10-23T17:04:02.773Z,38.53
2022-10-23T17:06:33.426Z,31.13
2022-10-23T17:09:03.706Z,37.77
2022-10-23T17:11:33.292Z,37.60
2022-10-23T17:14:04.358Z,36.33
2022-10-23T17:16:37.009Z,37.27
2022-10-23T17:19:15.980Z,45.40
2022-10-23T17:21:49.200Z,40.53
2022-10-23T17:24:18.146Z,36.67
2022-10-23T17:26:46.640Z,41.13
2022-10-23T17:29:15.631Z,41.50
2022-10-23T17:31:47.203Z,34.70
2022-10-23T17:34:18.700Z,36.50
2022-10-23T17:36:50.394Z,45.30
2022-10-23T17:39:21.001Z,68.23
2022-10-23T17:41:49.621Z,44.30
2022-10-23T17:44:18.242Z,38.23
2022-10-23T17:46:52.321Z,34.50
2022-10-23T17:49:20.717Z,34.47
2022-10-23T17:51:52.979Z,35.70
2022-10-23T17:54:21.246Z,38.70
2022-10-23T17:56:50.443Z,40.07
2022-10-23T17:59:19.971Z,38.30
2022-10-23T18:01:50.083Z,43.87
2022-10-23T18:04:19.335Z,41.33
2022-10-23T18:06:49.518Z,42.83
2022-10-23T18:09:17.850Z,38.87
2022-10-23T18:11:48.575Z,42.60
2022-10-23T18:14:17.986Z,43.57
2022-10-23T18:16:47.314Z,46.50
2022-10-23T18:19:18.546Z,44.23
2022-10-23T18:21:47.358Z,43.67
2022-10-23T18:24:16.412Z,40.50
2022-10-23T18:26:46.197Z,35.00
2022-10-23T18:29:14.827Z,55.47
2022-10-23T18:31:43.940Z,50.80
2022-10-23T18:34:17.445Z,42.43
2022-10-23T18:36:46.322Z,37.70
2022-10-23T18:39:16.674Z,44.43
2022-10-23T18:41:46.488Z,52.23
2022-10-23T18:44:17.635Z,43.70
2022-10-23T18:46:45.969Z,44.80
2022-10-23T18:49:15.516Z,40.47
2022-10-23T18:51:45.906Z,46.00
2022-10-23T18:54:16.107Z,48.80
2022-10-23T18:56:44.899Z,48.97
2022-10-23T18:59:17.340Z,49.17
2022-10-23T19:01:46.155Z,43.93
2022-10-23T19:04:16.192Z,47.97
2022-10-23T19:06:46.428Z,117.63
2022-10-23T19:09:15.526Z,58.77
2022-10-23T19:11:45.179Z,51.60
2022-10-23T19:14:13.452Z,50.70
2022-10-23T19:16:45.435Z,48.33
2022-10-23T19:19:19.077Z,40.93
2022-10-23T19:21:49.828Z,52.47
2022-10-23T19:24:22.592Z,51.00
2022-10-23T19:26:51.638Z,45.57
2022-10-23T19:29:24.724Z,73.93
2022-10-23T19:31:53.317Z,159.37
2022-10-23T19:34:24.649Z,51.97
2022-10-23T19:36:55.590Z,48.17
2022-10-23T19:39:25.754Z,51.83
2022-10-23T19:41:54.135Z,53.80
2022-10-23T19:44:22.756Z,50.63
2022-10-23T19:46:50.800Z,66.70
2022-10-23T19:49:19.467Z,56.70
2022-10-23T19:51:51.240Z,58.10
2022-10-23T19:54:21.405Z,55.87
2022-10-23T19:56:50.336Z,64.90
2022-10-23T19:59:18.448Z,59.13
2022-10-23T20:01:49.025Z,56.67
2022-10-23T20:04:18.142Z,54.23
2022-10-23T20:06:46.278Z,53.83
2022-10-23T20:09:15.556Z,55.93
2022-10-23T20:11:45.486Z,62.77
2022-10-23T20:14:14.187Z,60.80
2022-10-23T20:16:44.703Z,64.47
2022-10-23T20:19:14.804Z,55.83
2022-10-23T20:21:44.982Z,50.80
2022-10-23T20:24:14.993Z,66.30
2022-10-23T20:26:46.369Z,60.93
2022-10-23T20:29:15.020Z,54.70
2022-10-23T20:31:43.924Z,51.43
2022-10-23T20:34:13.350Z,68.20
2022-10-23T20:36:46.440Z,52.90
2022-10-23T20:39:17.440Z,55.53
2022-10-23T20:41:47.000Z,47.87
2022-10-23T20:46:45.868Z,67.23
2022-10-23T20:49:14.857Z,51.37
2022-10-23T20:51:45.193Z,50.80
2022-10-23T20:54:13.185Z,54.13
2022-10-23T20:56:41.343Z,54.80
2022-10-23T20:59:13.298Z,62.80
2022-10-23T21:01:42.526Z,89.87
2022-10-23T21:04:13.971Z,60.07
2022-10-23T21:06:57.803Z,49.57
2022-10-23T21:09:31.400Z,65.70
2022-10-23T21:12:04.607Z,54.73
2022-10-23T21:14:34.091Z,58.63
2022-10-23T21:17:02.109Z,56.00
2022-10-23T21:19:30.143Z,55.43
2022-10-23T21:21:58.342Z,57.27
2022-10-23T21:24:26.376Z,57.63
2022-10-23T21:26:54.478Z,59.80
2022-10-23T21:29:22.607Z,47.93
2022-10-23T21:31:57.070Z,43.60
2022-10-23T21:34:25.747Z,54.53
2022-10-23T21:37:11.950Z,47.63
2022-10-23T21:39:41.455Z,43.17
2022-10-23T21:42:09.578Z,44.60
2022-10-23T21:44:37.663Z,49.13
2022-10-23T21:47:07.083Z,45.57
2022-10-23T21:49:35.060Z,47.23
2022-10-23T21:52:03.186Z,50.73
2022-10-23T21:54:31.173Z,49.43
2022-10-23T21:56:59.218Z,48.70
2022-10-23T21:59:31.517Z,43.67
2022-10-23T22:02:01.366Z,45.63
2022-10-23T22:04:30.844Z,44.97
2022-10-23T22:06:58.854Z,47.53
2022-10-23T22:09:26.904Z,47.90
2022-10-23T22:11:55.948Z,47.57
2022-10-23T22:14:24.212Z,41.63
2022-10-23T22:16:52.429Z,38.23
2022-10-23T22:19:21.845Z,38.23
2022-10-23T22:21:52.696Z,37.30
2022-10-23T22:24:21.003Z,42.20
2022-10-23T22:26:57.815Z,37.53
2022-10-23T22:29:27.425Z,46.50
2022-10-23T22:31:55.494Z,38.73
2022-10-23T22:34:41.140Z,38.40
2022-10-23T22:37:15.082Z,29.80
2022-10-23T22:39:43.451Z,33.77
2022-10-23T22:42:11.422Z,30.90
2022-10-23T22:44:39.799Z,35.07
2022-10-23T22:47:08.921Z,31.13
2022-10-23T22:49:38.321Z,32.63
2022-10-23T22:52:06.556Z,32.00
2022-10-23T22:54:36.078Z,30.40
2022-10-23T22:57:04.234Z,30.90
2022-10-23T22:59:32.294Z,34.37
2022-10-23T23:02:00.716Z,29.00
2022-10-23T23:04:44.062Z,28.63
2022-10-23T23:07:13.760Z,29.33
2022-10-23T23:09:46.886Z,27.10
2022-10-23T23:12:15.538Z,37.93
2022-10-23T23:14:43.864Z,28.60
2022-10-23T23:17:14.561Z,31.37
2022-10-23T23:19:42.599Z,30.10
2022-10-23T23:22:10.646Z,35.43
2022-10-23T23:24:38.697Z,29.67
2022-10-23T23:27:08.047Z,30.37
2022-10-23T23:29:36.028Z,27.87
2022-10-23T23:32:06.286Z,28.63
2022-10-23T23:34:34.524Z,29.27
2022-10-23T23:37:02.685Z,23.87
2022-10-23T23:39:30.823Z,25.33
2022-10-23T23:41:58.816Z,39.80
2022-10-23T23:44:28.247Z,39.07
2022-10-23T23:46:56.769Z,37.60
2022-10-23T23:49:24.916Z,37.23
2022-10-23T23:51:53.079Z,31.00
2022-10-23T23:54:21.071Z,38.90
2022-10-23T23:56:49.148Z,30.37
2022-10-23T23:59:17.227Z,34.40
